sensor_id;sensor_type;location;lat;lon;timestamp;pressure;altitude;pressure_sealevel;temperature;humidity
27613;BME280;15036;48.094;-1.690;2023-08-12T00:00:48;101268.16;;;26.01;63.66
27613;BME280;15036;48.094;-1.690;2023-08-12T00:03:15;101265.50;;;26.30;62.92
27613;BME280;15036;48.094;-1.690;2023-08-12T00:05:40;101267.75;;;26.23;62.99
27613;BME280;15036;48.094;-1.690;2023-08-12T00:08:06;101264.41;;;26.26;62.62
27613;BME280;15036;48.094;-1.690;2023-08-12T00:10:31;101265.31;;;26.11;63.49
27613;BME280;15036;48.094;-1.690;2023-08-12T00:12:57;101266.72;;;26.09;63.57
27613;BME280;15036;48.094;-1.690;2023-08-12T00:15:22;101275.25;;;25.84;64.29
27613;BME280;15036;48.094;-1.690;2023-08-12T00:17:48;101283.19;;;25.61;64.68
27613;BME280;15036;48.094;-1.690;2023-08-12T00:20:13;101275.66;;;25.52;64.95
27613;BME280;15036;48.094;-1.690;2023-08-12T00:22:39;101274.03;;;26.00;63.47
27613;BME280;15036;48.094;-1.690;2023-08-12T00:25:05;101275.28;;;25.73;64.40
27613;BME280;15036;48.094;-1.690;2023-08-12T00:27:31;101279.19;;;25.83;63.84
27613;BME280;15036;48.094;-1.690;2023-08-12T00:29:56;101279.69;;;25.90;63.77
27613;BME280;15036;48.094;-1.690;2023-08-12T00:32:22;101271.59;;;25.09;65.75
27613;BME280;15036;48.094;-1.690;2023-08-12T00:34:47;101276.22;;;25.54;65.13
27613;BME280;15036;48.094;-1.690;2023-08-12T00:37:12;101274.47;;;25.73;64.17
27613;BME280;15036;48.094;-1.690;2023-08-12T00:39:38;101270.13;;;25.47;64.34
27613;BME280;15036;48.094;-1.690;2023-08-12T00:42:03;101275.38;;;25.53;64.53
27613;BME280;15036;48.094;-1.690;2023-08-12T00:44:29;101274.56;;;25.53;64.34
27613;BME280;15036;48.094;-1.690;2023-08-12T00:46:55;101271.47;;;25.49;64.29
27613;BME280;15036;48.094;-1.690;2023-08-12T00:49:22;101266.00;;;25.83;62.98
27613;BME280;15036;48.094;-1.690;2023-08-12T00:51:49;101262.50;;;25.57;63.52
27613;BME280;15036;48.094;-1.690;2023-08-12T00:54:16;101249.31;;;25.68;63.56
27613;BME280;15036;48.094;-1.690;2023-08-12T00:56:42;101260.69;;;25.87;62.83
27613;BME280;15036;48.094;-1.690;2023-08-12T00:59:09;101248.22;;;25.64;63.24
27613;BME280;15036;48.094;-1.690;2023-08-12T01:01:39;101240.56;;;25.85;62.25
27613;BME280;15036;48.094;-1.690;2023-08-12T01:04:07;101249.50;;;25.87;62.35
27613;BME280;15036;48.094;-1.690;2023-08-12T01:06:32;101252.41;;;25.61;63.03
27613;BME280;15036;48.094;-1.690;2023-08-12T01:08:58;101243.22;;;25.56;62.83
27613;BME280;15036;48.094;-1.690;2023-08-12T01:14:56;101246.75;;;25.76;62.38
27613;BME280;15036;48.094;-1.690;2023-08-12T01:17:25;101244.94;;;25.32;63.40
27613;BME280;15036;48.094;-1.690;2023-08-12T01:19:52;101238.03;;;25.88;61.79
27613;BME280;15036;48.094;-1.690;2023-08-12T01:22:20;101227.66;;;25.89;61.75
27613;BME280;15036;48.094;-1.690;2023-08-12T01:24:46;101232.72;;;25.82;62.00
27613;BME280;15036;48.094;-1.690;2023-08-12T01:27:12;101228.81;;;25.83;61.62
27613;BME280;15036;48.094;-1.690;2023-08-12T01:29:41;101230.38;;;25.55;62.01
27613;BME280;15036;48.094;-1.690;2023-08-12T01:35:08;101228.41;;;25.50;62.35
27613;BME280;15036;48.094;-1.690;2023-08-12T01:37:35;101237.31;;;25.62;61.96
27613;BME280;15036;48.094;-1.690;2023-08-12T01:40:03;101234.06;;;25.30;62.71
27613;BME280;15036;48.094;-1.690;2023-08-12T01:42:30;101234.38;;;25.19;63.09
27613;BME280;15036;48.094;-1.690;2023-08-12T01:44:57;101236.88;;;25.20;62.99
27613;BME280;15036;48.094;-1.690;2023-08-12T01:47:22;101239.19;;;25.03;63.25
27613;BME280;15036;48.094;-1.690;2023-08-12T01:49:48;101234.69;;;25.17;62.86
27613;BME280;15036;48.094;-1.690;2023-08-12T01:52:13;101232.97;;;25.21;62.83
27613;BME280;15036;48.094;-1.690;2023-08-12T01:54:38;101232.91;;;25.46;62.17
27613;BME280;15036;48.094;-1.690;2023-08-12T01:57:04;101230.59;;;25.63;61.57
27613;BME280;15036;48.094;-1.690;2023-08-12T01:59:36;101224.53;;;25.36;62.23
27613;BME280;15036;48.094;-1.690;2023-08-12T02:02:02;101231.53;;;25.39;61.95
27613;BME280;15036;48.094;-1.690;2023-08-12T02:04:28;101230.13;;;25.46;62.22
27613;BME280;15036;48.094;-1.690;2023-08-12T02:06:54;101220.66;;;25.27;62.67
27613;BME280;15036;48.094;-1.690;2023-08-12T02:09:20;101223.13;;;25.39;62.10
27613;BME280;15036;48.094;-1.690;2023-08-12T02:11:45;101216.16;;;25.36;61.93
27613;BME280;15036;48.094;-1.690;2023-08-12T02:14:11;101218.97;;;25.31;62.23
27613;BME280;15036;48.094;-1.690;2023-08-12T02:16:36;101205.31;;;25.15;62.62
27613;BME280;15036;48.094;-1.690;2023-08-12T02:19:01;101208.69;;;25.17;62.52
27613;BME280;15036;48.094;-1.690;2023-08-12T02:21:27;101210.59;;;25.26;61.91
27613;BME280;15036;48.094;-1.690;2023-08-12T02:23:52;101209.75;;;25.26;61.91
27613;BME280;15036;48.094;-1.690;2023-08-12T02:26:18;101206.72;;;25.12;61.89
27613;BME280;15036;48.094;-1.690;2023-08-12T02:28:43;101210.63;;;25.16;61.93
27613;BME280;15036;48.094;-1.690;2023-08-12T02:31:08;101220.75;;;24.97;62.61
27613;BME280;15036;48.094;-1.690;2023-08-12T02:33:34;101218.53;;;24.89;63.14
27613;BME280;15036;48.094;-1.690;2023-08-12T02:35:59;101217.13;;;24.91;62.72
27613;BME280;15036;48.094;-1.690;2023-08-12T02:38:24;101217.94;;;24.92;62.97
27613;BME280;15036;48.094;-1.690;2023-08-12T02:40:50;101211.44;;;25.22;61.99
27613;BME280;15036;48.094;-1.690;2023-08-12T02:43:16;101218.47;;;25.19;62.05
27613;BME280;15036;48.094;-1.690;2023-08-12T02:45:42;101215.09;;;25.17;62.01
27613;BME280;15036;48.094;-1.690;2023-08-12T02:48:10;101216.28;;;24.91;62.74
27613;BME280;15036;48.094;-1.690;2023-08-12T02:50:35;101216.28;;;24.86;62.87
27613;BME280;15036;48.094;-1.690;2023-08-12T02:53:01;101221.63;;;24.72;63.09
27613;BME280;15036;48.094;-1.690;2023-08-12T02:55:26;101220.22;;;24.50;63.63
27613;BME280;15036;48.094;-1.690;2023-08-12T02:57:52;101212.41;;;24.62;63.05
27613;BME280;15036;48.094;-1.690;2023-08-12T03:00:17;101225.25;;;24.38;63.58
27613;BME280;15036;48.094;-1.690;2023-08-12T03:02:43;101211.84;;;24.55;63.25
27613;BME280;15036;48.094;-1.690;2023-08-12T03:05:09;101209.63;;;24.62;63.11
27613;BME280;15036;48.094;-1.690;2023-08-12T03:07:34;101220.47;;;24.48;63.37
27613;BME280;15036;48.094;-1.690;2023-08-12T03:10:00;101224.41;;;24.22;63.96
27613;BME280;15036;48.094;-1.690;2023-08-12T03:12:25;101209.91;;;24.45;63.69
27613;BME280;15036;48.094;-1.690;2023-08-12T03:14:50;101209.63;;;24.32;63.76
27613;BME280;15036;48.094;-1.690;2023-08-12T03:17:16;101219.66;;;24.28;63.88
27613;BME280;15036;48.094;-1.690;2023-08-12T03:19:41;101212.16;;;24.38;63.63
27613;BME280;15036;48.094;-1.690;2023-08-12T03:22:07;101211.00;;;24.29;63.78
27613;BME280;15036;48.094;-1.690;2023-08-12T03:24:33;101201.25;;;24.32;63.63
27613;BME280;15036;48.094;-1.690;2023-08-12T03:26:58;101207.91;;;24.05;64.24
27613;BME280;15036;48.094;-1.690;2023-08-12T03:29:24;101199.56;;;24.31;63.40
27613;BME280;15036;48.094;-1.690;2023-08-12T03:31:49;101209.34;;;24.18;63.64
27613;BME280;15036;48.094;-1.690;2023-08-12T03:34:14;101210.44;;;24.12;63.54
27613;BME280;15036;48.094;-1.690;2023-08-12T03:36:40;101203.47;;;24.09;63.74
27613;BME280;15036;48.094;-1.690;2023-08-12T03:39:06;101212.97;;;24.24;63.23
27613;BME280;15036;48.094;-1.690;2023-08-12T03:41:31;101205.09;;;24.00;63.58
27613;BME280;15036;48.094;-1.690;2023-08-12T03:43:57;101210.09;;;23.93;64.06
27613;BME280;15036;48.094;-1.690;2023-08-12T03:46:22;101210.44;;;24.12;63.49
27613;BME280;15036;48.094;-1.690;2023-08-12T03:48:47;101203.47;;;24.35;62.55
27613;BME280;15036;48.094;-1.690;2023-08-12T03:51:13;101197.34;;;24.18;63.21
27613;BME280;15036;48.094;-1.690;2023-08-12T03:53:38;101189.53;;;24.30;62.72
27613;BME280;15036;48.094;-1.690;2023-08-12T03:56:03;101198.16;;;24.08;62.90
27613;BME280;15036;48.094;-1.690;2023-08-12T03:58:29;101196.19;;;24.49;62.21
27613;BME280;15036;48.094;-1.690;2023-08-12T04:00:54;101206.28;;;24.50;61.62
27613;BME280;15036;48.094;-1.690;2023-08-12T04:03:20;101200.41;;;24.41;62.02
27613;BME280;15036;48.094;-1.690;2023-08-12T04:05:49;101205.44;;;24.24;62.66
27613;BME280;15036;48.094;-1.690;2023-08-12T04:08:23;101200.97;;;24.28;62.27
27613;BME280;15036;48.094;-1.690;2023-08-12T04:10:50;101198.44;;;24.27;62.67
27613;BME280;15036;48.094;-1.690;2023-08-12T04:13:15;101196.78;;;24.26;62.29
27613;BME280;15036;48.094;-1.690;2023-08-12T04:15:41;101208.50;;;24.13;62.46
27613;BME280;15036;48.094;-1.690;2023-08-12T04:18:06;101205.69;;;24.18;62.27
27613;BME280;15036;48.094;-1.690;2023-08-12T04:20:32;101198.44;;;24.06;62.09
27613;BME280;15036;48.094;-1.690;2023-08-12T04:22:57;101200.34;;;24.01;62.08
27613;BME280;15036;48.094;-1.690;2023-08-12T04:25:23;101204.56;;;24.03;61.72
27613;BME280;15036;48.094;-1.690;2023-08-12T04:27:49;101214.50;;;23.69;61.96
27613;BME280;15036;48.094;-1.690;2023-08-12T04:30:16;101212.31;;;23.81;61.84
27613;BME280;15036;48.094;-1.690;2023-08-12T04:32:41;101215.84;;;23.47;62.32
27613;BME280;15036;48.094;-1.690;2023-08-12T04:35:07;101212.88;;;23.78;61.81
27613;BME280;15036;48.094;-1.690;2023-08-12T04:37:33;101211.50;;;23.24;63.09
27613;BME280;15036;48.094;-1.690;2023-08-12T04:39:58;101210.25;;;23.47;62.32
27613;BME280;15036;48.094;-1.690;2023-08-12T04:42:24;101225.25;;;23.36;62.70
27613;BME280;15036;48.094;-1.690;2023-08-12T04:44:49;101227.22;;;23.40;62.17
27613;BME280;15036;48.094;-1.690;2023-08-12T04:47:15;101221.97;;;23.49;62.28
27613;BME280;15036;48.094;-1.690;2023-08-12T04:49:41;101226.19;;;23.56;61.62
27613;BME280;15036;48.094;-1.690;2023-08-12T04:52:06;101217.84;;;23.66;61.65
27613;BME280;15036;48.094;-1.690;2023-08-12T04:54:32;101222.00;;;23.64;61.51
27613;BME280;15036;48.094;-1.690;2023-08-12T04:56:58;101230.94;;;23.61;61.68
27613;BME280;15036;48.094;-1.690;2023-08-12T04:59:24;101226.72;;;23.53;61.70
27613;BME280;15036;48.094;-1.690;2023-08-12T05:01:50;101223.97;;;23.58;61.79
27613;BME280;15036;48.094;-1.690;2023-08-12T05:04:15;101227.03;;;23.57;61.65
27613;BME280;15036;48.094;-1.690;2023-08-12T05:06:41;101233.34;;;23.37;62.32
27613;BME280;15036;48.094;-1.690;2023-08-12T05:09:07;101228.34;;;23.39;61.86
27613;BME280;15036;48.094;-1.690;2023-08-12T05:11:32;101237.56;;;23.45;62.13
27613;BME280;15036;48.094;-1.690;2023-08-12T05:13:57;101233.50;;;23.20;62.76
27613;BME280;15036;48.094;-1.690;2023-08-12T05:16:23;101236.94;;;23.33;62.39
27613;BME280;15036;48.094;-1.690;2023-08-12T05:18:48;101229.25;;;23.08;62.81
27613;BME280;15036;48.094;-1.690;2023-08-12T05:21:13;101231.81;;;23.14;63.09
27613;BME280;15036;48.094;-1.690;2023-08-12T05:23:39;101235.34;;;23.47;61.72
27613;BME280;15036;48.094;-1.690;2023-08-12T05:26:04;101241.31;;;23.23;62.48
27613;BME280;15036;48.094;-1.690;2023-08-12T05:28:29;101243.41;;;23.43;61.98
27613;BME280;15036;48.094;-1.690;2023-08-12T05:30:55;101239.31;;;23.14;62.20
27613;BME280;15036;48.094;-1.690;2023-08-12T05:33:21;101241.50;;;23.54;61.27
27613;BME280;15036;48.094;-1.690;2023-08-12T05:35:50;101241.25;;;23.60;60.79
27613;BME280;15036;48.094;-1.690;2023-08-12T05:38:16;101249.00;;;23.43;61.12
27613;BME280;15036;48.094;-1.690;2023-08-12T05:40:42;101247.16;;;23.17;62.35
27613;BME280;15036;48.094;-1.690;2023-08-12T05:43:07;101244.38;;;23.22;61.55
27613;BME280;15036;48.094;-1.690;2023-08-12T05:45:33;101240.06;;;23.41;61.44
27613;BME280;15036;48.094;-1.690;2023-08-12T05:47:59;101243.22;;;23.65;60.61
27613;BME280;15036;48.094;-1.690;2023-08-12T05:50:24;101237.50;;;23.35;61.01
27613;BME280;15036;48.094;-1.690;2023-08-12T05:52:50;101245.59;;;23.31;61.02
27613;BME280;15036;48.094;-1.690;2023-08-12T05:55:15;101237.94;;;23.68;60.43
27613;BME280;15036;48.094;-1.690;2023-08-12T05:57:40;101247.94;;;23.64;60.27
27613;BME280;15036;48.094;-1.690;2023-08-12T06:00:06;101242.41;;;23.74;60.05
27613;BME280;15036;48.094;-1.690;2023-08-12T06:02:32;101244.94;;;23.81;59.75
27613;BME280;15036;48.094;-1.690;2023-08-12T06:04:57;101248.53;;;23.71;60.01
27613;BME280;15036;48.094;-1.690;2023-08-12T06:07:23;101249.88;;;23.59;59.79
27613;BME280;15036;48.094;-1.690;2023-08-12T06:09:49;101254.06;;;23.61;59.38
27613;BME280;15036;48.094;-1.690;2023-08-12T06:12:15;101248.72;;;23.50;59.84
27613;BME280;15036;48.094;-1.690;2023-08-12T06:14:40;101258.50;;;23.57;59.71
27613;BME280;15036;48.094;-1.690;2023-08-12T06:17:06;101254.00;;;23.46;59.94
27613;BME280;15036;48.094;-1.690;2023-08-12T06:19:32;101246.88;;;23.75;59.51
27613;BME280;15036;48.094;-1.690;2023-08-12T06:21:57;101246.03;;;23.80;59.35
27613;BME280;15036;48.094;-1.690;2023-08-12T06:24:23;101256.28;;;23.54;59.31
27613;BME280;15036;48.094;-1.690;2023-08-12T06:26:48;101269.69;;;23.62;59.15
27613;BME280;15036;48.094;-1.690;2023-08-12T06:29:13;101266.06;;;23.57;59.58
27613;BME280;15036;48.094;-1.690;2023-08-12T06:31:39;101264.88;;;23.48;59.37
27613;BME280;15036;48.094;-1.690;2023-08-12T06:34:04;101273.59;;;23.66;58.83
27613;BME280;15036;48.094;-1.690;2023-08-12T06:36:30;101276.59;;;23.03;60.51
27613;BME280;15036;48.094;-1.690;2023-08-12T06:38:55;101277.72;;;23.07;60.02
27613;BME280;15036;48.094;-1.690;2023-08-12T06:41:20;101282.13;;;22.61;61.06
27613;BME280;15036;48.094;-1.690;2023-08-12T06:43:46;101282.28;;;22.81;60.52
27613;BME280;15036;48.094;-1.690;2023-08-12T06:46:11;101285.94;;;22.55;60.37
27613;BME280;15036;48.094;-1.690;2023-08-12T06:48:37;101290.22;;;22.36;61.44
27613;BME280;15036;48.094;-1.690;2023-08-12T06:51:02;101296.50;;;22.85;60.04
27613;BME280;15036;48.094;-1.690;2023-08-12T06:53:35;101289.50;;;22.51;60.42
27613;BME280;15036;48.094;-1.690;2023-08-12T06:56:01;101308.97;;;22.51;60.12
27613;BME280;15036;48.094;-1.690;2023-08-12T06:58:26;101302.25;;;22.47;60.43
27613;BME280;15036;48.094;-1.690;2023-08-12T07:00:52;101293.69;;;22.80;59.53
27613;BME280;15036;48.094;-1.690;2023-08-12T07:03:18;101300.31;;;22.47;60.29
27613;BME280;15036;48.094;-1.690;2023-08-12T07:08:09;101291.09;;;23.05;59.07
27613;BME280;15036;48.094;-1.690;2023-08-12T07:10:38;101302.81;;;23.07;58.65
27613;BME280;15036;48.094;-1.690;2023-08-12T07:13:03;101293.09;;;22.19;59.85
27613;BME280;15036;48.094;-1.690;2023-08-12T07:15:29;101300.59;;;22.19;59.75
27613;BME280;15036;48.094;-1.690;2023-08-12T07:17:54;101304.16;;;22.68;58.76
27613;BME280;15036;48.094;-1.690;2023-08-12T07:20:19;101302.16;;;22.36;59.83
27613;BME280;15036;48.094;-1.690;2023-08-12T07:22:45;101310.72;;;22.88;58.64
27613;BME280;15036;48.094;-1.690;2023-08-12T07:25:10;101303.28;;;23.36;57.71
27613;BME280;15036;48.094;-1.690;2023-08-12T07:27:35;101309.25;;;23.59;57.21
27613;BME280;15036;48.094;-1.690;2023-08-12T07:30:01;101307.25;;;23.08;58.03
27613;BME280;15036;48.094;-1.690;2023-08-12T07:32:26;101315.25;;;23.36;57.01
27613;BME280;15036;48.094;-1.690;2023-08-12T07:34:51;101297.38;;;23.27;56.75
27613;BME280;15036;48.094;-1.690;2023-08-12T07:37:17;101303.81;;;23.33;56.83
27613;BME280;15036;48.094;-1.690;2023-08-12T07:39:42;101303.16;;;23.20;56.69
27613;BME280;15036;48.094;-1.690;2023-08-12T07:42:08;101307.34;;;23.70;55.63
27613;BME280;15036;48.094;-1.690;2023-08-12T07:44:34;101303.47;;;23.71;55.66
27613;BME280;15036;48.094;-1.690;2023-08-12T07:46:59;101303.28;;;23.97;55.24
27613;BME280;15036;48.094;-1.690;2023-08-12T07:49:24;101309.31;;;23.27;56.00
27613;BME280;15036;48.094;-1.690;2023-08-12T07:51:50;101301.94;;;23.43;56.18
27613;BME280;15036;48.094;-1.690;2023-08-12T07:54:15;101304.28;;;22.83;57.47
27613;BME280;15036;48.094;-1.690;2023-08-12T07:56:40;101301.16;;;22.74;57.31
27613;BME280;15036;48.094;-1.690;2023-08-12T07:59:06;101303.25;;;22.94;56.99
27613;BME280;15036;48.094;-1.690;2023-08-12T08:01:31;101308.88;;;23.04;57.30
27613;BME280;15036;48.094;-1.690;2023-08-12T08:03:56;101302.84;;;22.75;57.88
27613;BME280;15036;48.094;-1.690;2023-08-12T08:06:22;101306.09;;;23.04;56.82
27613;BME280;15036;48.094;-1.690;2023-08-12T08:08:49;101314.50;;;23.09;57.26
27613;BME280;15036;48.094;-1.690;2023-08-12T08:11:14;101310.16;;;23.28;57.01
27613;BME280;15036;48.094;-1.690;2023-08-12T08:13:39;101312.56;;;23.51;56.50
27613;BME280;15036;48.094;-1.690;2023-08-12T08:16:05;101311.59;;;23.31;56.80
27613;BME280;15036;48.094;-1.690;2023-08-12T08:18:30;101312.38;;;23.21;56.63
27613;BME280;15036;48.094;-1.690;2023-08-12T08:20:56;101314.09;;;22.90;57.33
27613;BME280;15036;48.094;-1.690;2023-08-12T08:23:21;101315.97;;;23.21;56.76
27613;BME280;15036;48.094;-1.690;2023-08-12T08:25:46;101315.69;;;23.60;55.99
27613;BME280;15036;48.094;-1.690;2023-08-12T08:28:12;101306.88;;;23.88;55.51
27613;BME280;15036;48.094;-1.690;2023-08-12T08:30:37;101313.25;;;23.83;55.73
27613;BME280;15036;48.094;-1.690;2023-08-12T08:33:03;101314.41;;;23.36;56.33
27613;BME280;15036;48.094;-1.690;2023-08-12T08:35:28;101318.34;;;23.96;55.24
27613;BME280;15036;48.094;-1.690;2023-08-12T08:37:54;101324.19;;;23.33;56.05
27613;BME280;15036;48.094;-1.690;2023-08-12T08:40:19;101325.41;;;23.57;55.35
27613;BME280;15036;48.094;-1.690;2023-08-12T08:42:46;101315.91;;;23.48;55.33
27613;BME280;15036;48.094;-1.690;2023-08-12T08:45:17;101321.38;;;23.90;54.36
27613;BME280;15036;48.094;-1.690;2023-08-12T08:47:43;101319.13;;;23.82;54.89
27613;BME280;15036;48.094;-1.690;2023-08-12T08:50:09;101322.38;;;24.26;54.41
27613;BME280;15036;48.094;-1.690;2023-08-12T08:52:36;101327.44;;;23.25;56.17
27613;BME280;15036;48.094;-1.690;2023-08-12T08:55:03;101319.06;;;23.67;55.79
27613;BME280;15036;48.094;-1.690;2023-08-12T08:57:30;101324.00;;;23.13;56.25
27613;BME280;15036;48.094;-1.690;2023-08-12T08:59:55;101335.09;;;23.96;54.52
27613;BME280;15036;48.094;-1.690;2023-08-12T09:02:21;101328.00;;;24.56;52.90
27613;BME280;15036;48.094;-1.690;2023-08-12T09:04:47;101339.66;;;24.28;53.62
27613;BME280;15036;48.094;-1.690;2023-08-12T09:07:13;101342.00;;;23.84;54.84
27613;BME280;15036;48.094;-1.690;2023-08-12T09:09:46;101341.91;;;24.31;52.70
27613;BME280;15036;48.094;-1.690;2023-08-12T09:12:14;101343.88;;;24.30;53.15
27613;BME280;15036;48.094;-1.690;2023-08-12T09:14:41;101333.63;;;24.81;51.98
27613;BME280;15036;48.094;-1.690;2023-08-12T09:17:07;101333.84;;;24.44;52.89
27613;BME280;15036;48.094;-1.690;2023-08-12T09:19:32;101340.84;;;24.67;52.15
27613;BME280;15036;48.094;-1.690;2023-08-12T09:21:58;101342.78;;;24.46;53.22
27613;BME280;15036;48.094;-1.690;2023-08-12T09:24:27;101344.22;;;24.84;51.87
27613;BME280;15036;48.094;-1.690;2023-08-12T09:26:53;101338.59;;;25.34;50.77
27613;BME280;15036;48.094;-1.690;2023-08-12T09:29:39;101342.84;;;24.91;51.25
27613;BME280;15036;48.094;-1.690;2023-08-12T09:32:12;101352.00;;;24.67;50.65
27613;BME280;15036;48.094;-1.690;2023-08-12T09:34:45;101344.81;;;24.91;50.73
27613;BME280;15036;48.094;-1.690;2023-08-12T09:37:12;101332.78;;;25.06;50.86
27613;BME280;15036;48.094;-1.690;2023-08-12T09:39:38;101355.16;;;24.96;50.50
27613;BME280;15036;48.094;-1.690;2023-08-12T09:42:04;101328.84;;;25.27;49.75
27613;BME280;15036;48.094;-1.690;2023-08-12T09:44:34;101345.09;;;25.10;50.31
27613;BME280;15036;48.094;-1.690;2023-08-12T09:47:00;101329.69;;;25.22;49.92
27613;BME280;15036;48.094;-1.690;2023-08-12T09:49:25;101339.75;;;25.33;50.07
27613;BME280;15036;48.094;-1.690;2023-08-12T09:51:51;101334.75;;;26.09;48.47
27613;BME280;15036;48.094;-1.690;2023-08-12T09:54:17;101343.56;;;25.67;49.47
27613;BME280;15036;48.094;-1.690;2023-08-12T09:56:49;101340.97;;;25.96;48.76
27613;BME280;15036;48.094;-1.690;2023-08-12T09:59:19;101336.75;;;25.94;47.78
27613;BME280;15036;48.094;-1.690;2023-08-12T10:01:49;101342.31;;;26.09;47.52
27613;BME280;15036;48.094;-1.690;2023-08-12T10:04:18;101341.75;;;26.12;47.77
27613;BME280;15036;48.094;-1.690;2023-08-12T10:06:47;101334.34;;;26.31;47.69
27613;BME280;15036;48.094;-1.690;2023-08-12T10:09:15;101337.63;;;26.48;46.98
27613;BME280;15036;48.094;-1.690;2023-08-12T10:11:42;101332.31;;;25.88;46.93
27613;BME280;15036;48.094;-1.690;2023-08-12T10:14:09;101336.41;;;25.41;47.39
27613;BME280;15036;48.094;-1.690;2023-08-12T10:16:36;101332.91;;;25.79;47.18
27613;BME280;15036;48.094;-1.690;2023-08-12T10:19:04;101328.84;;;25.17;47.49
27613;BME280;15036;48.094;-1.690;2023-08-12T10:21:30;101339.44;;;26.19;45.48
27613;BME280;15036;48.094;-1.690;2023-08-12T10:23:58;101327.84;;;25.82;44.84
27613;BME280;15036;48.094;-1.690;2023-08-12T10:26:24;101338.88;;;26.22;45.32
27613;BME280;15036;48.094;-1.690;2023-08-12T10:28:50;101328.19;;;26.34;44.14
27613;BME280;15036;48.094;-1.690;2023-08-12T10:31:16;101335.41;;;25.86;44.83
27613;BME280;15036;48.094;-1.690;2023-08-12T10:33:42;101326.28;;;26.24;42.83
27613;BME280;15036;48.094;-1.690;2023-08-12T10:36:08;101326.19;;;26.78;42.69
27613;BME280;15036;48.094;-1.690;2023-08-12T10:38:34;101330.13;;;26.77;43.00
27613;BME280;15036;48.094;-1.690;2023-08-12T10:41:18;101329.63;;;27.04;42.47
27613;BME280;15036;48.094;-1.690;2023-08-12T10:43:59;101327.00;;;27.12;42.60
27613;BME280;15036;48.094;-1.690;2023-08-12T10:49:10;101315.75;;;27.70;41.79
27613;BME280;15036;48.094;-1.690;2023-08-12T10:51:46;101320.03;;;27.86;40.52
27613;BME280;15036;48.094;-1.690;2023-08-12T10:54:21;101314.19;;;28.06;40.00
27613;BME280;15036;48.094;-1.690;2023-08-12T11:00:10;101314.09;;;27.69;41.39
27613;BME280;15036;48.094;-1.690;2023-08-12T11:02:36;101311.25;;;27.92;40.96
27613;BME280;15036;48.094;-1.690;2023-08-12T11:05:03;101307.50;;;28.02;41.07
27613;BME280;15036;48.094;-1.690;2023-08-12T11:07:41;101306.94;;;28.42;40.32
27613;BME280;15036;48.094;-1.690;2023-08-12T11:10:14;101303.53;;;28.03;40.31
27613;BME280;15036;48.094;-1.690;2023-08-12T11:12:46;101303.09;;;27.96;41.08
27613;BME280;15036;48.094;-1.690;2023-08-12T11:15:12;101301.84;;;28.25;40.56
27613;BME280;15036;48.094;-1.690;2023-08-12T11:17:41;101297.81;;;28.32;40.67
27613;BME280;15036;48.094;-1.690;2023-08-12T11:20:10;101306.78;;;28.52;39.84
27613;BME280;15036;48.094;-1.690;2023-08-12T11:22:37;101308.03;;;28.04;40.48
27613;BME280;15036;48.094;-1.690;2023-08-12T11:25:05;101307.41;;;27.65;40.49
27613;BME280;15036;48.094;-1.690;2023-08-12T11:27:40;101309.78;;;27.24;41.26
27613;BME280;15036;48.094;-1.690;2023-08-12T11:30:06;101316.63;;;27.41;41.32
27613;BME280;15036;48.094;-1.690;2023-08-12T11:32:32;101310.53;;;27.82;41.07
27613;BME280;15036;48.094;-1.690;2023-08-12T11:34:58;101304.28;;;27.42;41.70
27613;BME280;15036;48.094;-1.690;2023-08-12T11:37:23;101312.38;;;28.15;41.03
27613;BME280;15036;48.094;-1.690;2023-08-12T11:39:52;101304.03;;;27.86;40.97
27613;BME280;15036;48.094;-1.690;2023-08-12T11:42:17;101308.25;;;27.65;40.83
27613;BME280;15036;48.094;-1.690;2023-08-12T11:44:43;101305.78;;;27.59;41.92
27613;BME280;15036;48.094;-1.690;2023-08-12T11:47:08;101304.84;;;26.82;42.38
27613;BME280;15036;48.094;-1.690;2023-08-12T11:49:33;101313.19;;;27.21;42.32
27613;BME280;15036;48.094;-1.690;2023-08-12T11:52:01;101303.44;;;27.42;42.25
27613;BME280;15036;48.094;-1.690;2023-08-12T11:54:26;101300.78;;;28.40;40.09
27613;BME280;15036;48.094;-1.690;2023-08-12T11:56:53;101304.78;;;28.71;39.25
27613;BME280;15036;48.094;-1.690;2023-08-12T11:59:21;101300.31;;;29.02;39.23
27613;BME280;15036;48.094;-1.690;2023-08-12T12:01:48;101306.00;;;28.28;38.53
27613;BME280;15036;48.094;-1.690;2023-08-12T12:04:14;101308.34;;;28.21;38.06
27613;BME280;15036;48.094;-1.690;2023-08-12T12:06:40;101301.19;;;27.68;39.36
27613;BME280;15036;48.094;-1.690;2023-08-12T12:09:07;101312.34;;;27.73;39.04
27613;BME280;15036;48.094;-1.690;2023-08-12T12:11:35;101313.06;;;28.44;39.36
27613;BME280;15036;48.094;-1.690;2023-08-12T12:14:05;101309.56;;;27.96;39.82
27613;BME280;15036;48.094;-1.690;2023-08-12T12:16:46;101305.31;;;27.99;39.49
27613;BME280;15036;48.094;-1.690;2023-08-12T12:19:16;101304.34;;;27.85;39.05
27613;BME280;15036;48.094;-1.690;2023-08-12T12:21:42;101315.78;;;28.12;37.92
27613;BME280;15036;48.094;-1.690;2023-08-12T12:24:08;101304.47;;;28.17;37.86
27613;BME280;15036;48.094;-1.690;2023-08-12T12:26:35;101301.91;;;28.20;38.59
27613;BME280;15036;48.094;-1.690;2023-08-12T12:29:02;101299.03;;;28.44;37.88
27613;BME280;15036;48.094;-1.690;2023-08-12T12:31:28;101301.72;;;28.86;37.79
27613;BME280;15036;48.094;-1.690;2023-08-12T12:33:53;101301.13;;;29.35;37.85
27613;BME280;15036;48.094;-1.690;2023-08-12T12:36:19;101296.16;;;28.31;36.21
27613;BME280;15036;48.094;-1.690;2023-08-12T12:38:44;101288.13;;;29.26;35.16
27613;BME280;15036;48.094;-1.690;2023-08-12T12:41:09;101285.84;;;29.82;34.49
27613;BME280;15036;48.094;-1.690;2023-08-12T12:43:35;101293.94;;;29.16;35.38
27613;BME280;15036;48.094;-1.690;2023-08-12T12:46:00;101295.72;;;29.66;35.08
27613;BME280;15036;48.094;-1.690;2023-08-12T12:48:25;101295.69;;;30.20;34.26
27613;BME280;15036;48.094;-1.690;2023-08-12T12:50:51;101284.78;;;29.91;34.24